sensor_id;sensor_type;location;lat;lon;timestamp;P1;durP1;ratioP1;P2;durP2;ratioP2
82417;SDS011;72059;53.734;10.260;2023-11-21T00:00:34;30.30;;;16.52;;
82417;SDS011;72059;53.734;10.260;2023-11-21T00:03:02;26.73;;;14.33;;
82417;SDS011;72059;53.734;10.260;2023-11-21T00:05:29;37.05;;;18.98;;
82417;SDS011;72059;53.734;10.260;2023-11-21T00:07:57;35.52;;;19.40;;
82417;SDS011;72059;53.734;10.260;2023-11-21T00:10:24;33.83;;;17.67;;
82417;SDS011;72059;53.734;10.260;2023-11-21T00:12:52;40.60;;;20.80;;
82417;SDS011;72059;53.734;10.260;2023-11-21T00:15:20;37.30;;;18.92;;
82417;SDS011;72059;53.734;10.260;2023-11-21T00:17:48;34.67;;;19.20;;
82417;SDS011;72059;53.734;10.260;2023-11-21T00:20:15;30.43;;;16.12;;
82417;SDS011;72059;53.734;10.260;2023-11-21T00:22:42;36.42;;;20.95;;
82417;SDS011;72059;53.734;10.260;2023-11-21T00:25:10;37.28;;;19.62;;
82417;SDS011;72059;53.734;10.260;2023-11-21T00:27:40;39.20;;;19.87;;
82417;SDS011;72059;53.734;10.260;2023-11-21T00:30:08;35.20;;;18.10;;
82417;SDS011;72059;53.734;10.260;2023-11-21T00:32:36;25.20;;;14.78;;
82417;SDS011;72059;53.734;10.260;2023-11-21T00:35:04;28.10;;;16.00;;
82417;SDS011;72059;53.734;10.260;2023-11-21T00:37:32;28.77;;;15.93;;
82417;SDS011;72059;53.734;10.260;2023-11-21T00:39:59;24.32;;;14.25;;
82417;SDS011;72059;53.734;10.260;2023-11-21T00:42:28;34.65;;;17.48;;
82417;SDS011;72059;53.734;10.260;2023-11-21T00:44:57;32.55;;;18.60;;
82417;SDS011;72059;53.734;10.260;2023-11-21T00:47:24;35.23;;;18.65;;
82417;SDS011;72059;53.734;10.260;2023-11-21T00:49:52;34.30;;;20.62;;
82417;SDS011;72059;53.734;10.260;2023-11-21T00:52:19;26.27;;;16.73;;
82417;SDS011;72059;53.734;10.260;2023-11-21T00:54:47;23.20;;;14.78;;
82417;SDS011;72059;53.734;10.260;2023-11-21T00:57:15;22.90;;;14.98;;
82417;SDS011;72059;53.734;10.260;2023-11-21T00:59:42;23.30;;;14.33;;
82417;SDS011;72059;53.734;10.260;2023-11-21T01:02:09;21.60;;;13.85;;
82417;SDS011;72059;53.734;10.260;2023-11-21T01:04:37;18.17;;;12.43;;
82417;SDS011;72059;53.734;10.260;2023-11-21T01:07:04;17.45;;;12.05;;
82417;SDS011;72059;53.734;10.260;2023-11-21T01:09:32;15.45;;;11.12;;
82417;SDS011;72059;53.734;10.260;2023-11-21T01:12:00;19.20;;;13.88;;
82417;SDS011;72059;53.734;10.260;2023-11-21T01:14:27;17.50;;;12.00;;
82417;SDS011;72059;53.734;10.260;2023-11-21T01:16:55;18.27;;;12.37;;
82417;SDS011;72059;53.734;10.260;2023-11-21T01:19:22;16.17;;;11.25;;
82417;SDS011;72059;53.734;10.260;2023-11-21T01:21:49;13.95;;;9.38;;
82417;SDS011;72059;53.734;10.260;2023-11-21T01:24:18;13.90;;;9.08;;
82417;SDS011;72059;53.734;10.260;2023-11-21T01:26:45;13.95;;;9.18;;
82417;SDS011;72059;53.734;10.260;2023-11-21T01:29:13;10.80;;;7.85;;
82417;SDS011;72059;53.734;10.260;2023-11-21T01:31:40;11.22;;;8.70;;
82417;SDS011;72059;53.734;10.260;2023-11-21T01:34:08;11.88;;;7.70;;
82417;SDS011;72059;53.734;10.260;2023-11-21T01:36:35;12.47;;;8.70;;
82417;SDS011;72059;53.734;10.260;2023-11-21T01:39:02;11.08;;;7.80;;
82417;SDS011;72059;53.734;10.260;2023-11-21T01:41:32;12.60;;;8.93;;
82417;SDS011;72059;53.734;10.260;2023-11-21T01:44:00;14.83;;;10.30;;
82417;SDS011;72059;53.734;10.260;2023-11-21T01:46:28;17.32;;;10.45;;
82417;SDS011;72059;53.734;10.260;2023-11-21T01:48:56;15.55;;;10.18;;
82417;SDS011;72059;53.734;10.260;2023-11-21T01:51:23;14.20;;;10.20;;
82417;SDS011;72059;53.734;10.260;2023-11-21T01:53:52;12.95;;;8.68;;
82417;SDS011;72059;53.734;10.260;2023-11-21T01:56:19;17.73;;;12.63;;
82417;SDS011;72059;53.734;10.260;2023-11-21T01:58:47;16.60;;;11.85;;
82417;SDS011;72059;53.734;10.260;2023-11-21T02:01:14;14.07;;;10.53;;
82417;SDS011;72059;53.734;10.260;2023-11-21T02:03:43;12.20;;;10.23;;
82417;SDS011;72059;53.734;10.260;2023-11-21T02:06:11;12.73;;;9.73;;
82417;SDS011;72059;53.734;10.260;2023-11-21T02:08:38;12.33;;;9.23;;
82417;SDS011;72059;53.734;10.260;2023-11-21T02:11:08;11.30;;;9.25;;
82417;SDS011;72059;53.734;10.260;2023-11-21T02:13:37;12.37;;;9.18;;
82417;SDS011;72059;53.734;10.260;2023-11-21T02:16:06;9.58;;;7.33;;
82417;SDS011;72059;53.734;10.260;2023-11-21T02:18:34;11.85;;;8.55;;
82417;SDS011;72059;53.734;10.260;2023-11-21T02:21:03;13.95;;;9.25;;
82417;SDS011;72059;53.734;10.260;2023-11-21T02:23:31;15.53;;;10.95;;
82417;SDS011;72059;53.734;10.260;2023-11-21T02:26:00;16.20;;;9.58;;
82417;SDS011;72059;53.734;10.260;2023-11-21T02:28:29;12.45;;;9.00;;
82417;SDS011;72059;53.734;10.260;2023-11-21T02:30:56;14.83;;;10.20;;
82417;SDS011;72059;53.734;10.260;2023-11-21T02:33:24;12.47;;;9.55;;
82417;SDS011;72059;53.734;10.260;2023-11-21T02:35:52;11.85;;;8.68;;
82417;SDS011;72059;53.734;10.260;2023-11-21T02:38:23;12.00;;;9.33;;
82417;SDS011;72059;53.734;10.260;2023-11-21T02:40:50;12.98;;;9.23;;
82417;SDS011;72059;53.734;10.260;2023-11-21T02:43:17;12.47;;;8.65;;
82417;SDS011;72059;53.734;10.260;2023-11-21T02:45:45;9.40;;;7.30;;
82417;SDS011;72059;53.734;10.260;2023-11-21T02:48:12;11.43;;;8.18;;
82417;SDS011;72059;53.734;10.260;2023-11-21T02:50:40;15.30;;;9.93;;
82417;SDS011;72059;53.734;10.260;2023-11-21T02:53:09;12.07;;;9.18;;
82417;SDS011;72059;53.734;10.260;2023-11-21T02:55:36;12.45;;;9.78;;
82417;SDS011;72059;53.734;10.260;2023-11-21T02:58:03;14.05;;;10.10;;
82417;SDS011;72059;53.734;10.260;2023-11-21T03:00:31;11.40;;;9.20;;
82417;SDS011;72059;53.734;10.260;2023-11-21T03:02:59;13.43;;;10.05;;
82417;SDS011;72059;53.734;10.260;2023-11-21T03:05:26;12.82;;;9.85;;
82417;SDS011;72059;53.734;10.260;2023-11-21T03:07:54;12.68;;;9.53;;
82417;SDS011;72059;53.734;10.260;2023-11-21T03:10:21;12.90;;;8.40;;
82417;SDS011;72059;53.734;10.260;2023-11-21T03:12:49;12.85;;;9.48;;
82417;SDS011;72059;53.734;10.260;2023-11-21T03:15:16;11.60;;;8.73;;
82417;SDS011;72059;53.734;10.260;2023-11-21T03:17:44;12.82;;;9.58;;
82417;SDS011;72059;53.734;10.260;2023-11-21T03:20:11;11.68;;;8.68;;
82417;SDS011;72059;53.734;10.260;2023-11-21T03:22:39;11.43;;;7.72;;
82417;SDS011;72059;53.734;10.260;2023-11-21T03:25:07;12.18;;;7.85;;
82417;SDS011;72059;53.734;10.260;2023-11-21T03:27:36;12.05;;;8.53;;
82417;SDS011;72059;53.734;10.260;2023-11-21T03:30:04;11.83;;;9.50;;
82417;SDS011;72059;53.734;10.260;2023-11-21T03:32:33;11.45;;;8.28;;
82417;SDS011;72059;53.734;10.260;2023-11-21T03:35:01;14.83;;;10.15;;
82417;SDS011;72059;53.734;10.260;2023-11-21T03:37:29;14.87;;;10.23;;
82417;SDS011;72059;53.734;10.260;2023-11-21T03:39:56;14.80;;;9.83;;
82417;SDS011;72059;53.734;10.260;2023-11-21T03:42:24;13.53;;;9.35;;
82417;SDS011;72059;53.734;10.260;2023-11-21T03:44:54;13.10;;;9.80;;
82417;SDS011;72059;53.734;10.260;2023-11-21T03:47:21;14.33;;;10.80;;
82417;SDS011;72059;53.734;10.260;2023-11-21T03:49:49;14.28;;;10.18;;
82417;SDS011;72059;53.734;10.260;2023-11-21T03:52:16;12.98;;;9.23;;
82417;SDS011;72059;53.734;10.260;2023-11-21T03:54:44;14.47;;;9.25;;
82417;SDS011;72059;53.734;10.260;2023-11-21T03:57:12;12.68;;;9.20;;
82417;SDS011;72059;53.734;10.260;2023-11-21T03:59:40;13.50;;;9.18;;
82417;SDS011;72059;53.734;10.260;2023-11-21T04:02:08;10.23;;;8.08;;
82417;SDS011;72059;53.734;10.260;2023-11-21T04:04:36;12.15;;;8.65;;
82417;SDS011;72059;53.734;10.260;2023-11-21T04:07:03;10.82;;;8.53;;
82417;SDS011;72059;53.734;10.260;2023-11-21T04:09:31;12.20;;;8.80;;
82417;SDS011;72059;53.734;10.260;2023-11-21T04:11:58;10.82;;;7.83;;
82417;SDS011;72059;53.734;10.260;2023-11-21T04:14:26;10.93;;;9.33;;
82417;SDS011;72059;53.734;10.260;2023-11-21T04:16:53;9.98;;;8.23;;
82417;SDS011;72059;53.734;10.260;2023-11-21T04:19:21;11.57;;;9.43;;
82417;SDS011;72059;53.734;10.260;2023-11-21T04:21:48;10.78;;;8.88;;
82417;SDS011;72059;53.734;10.260;2023-11-21T04:24:16;11.12;;;8.43;;
82417;SDS011;72059;53.734;10.260;2023-11-21T04:26:44;10.00;;;7.58;;
82417;SDS011;72059;53.734;10.260;2023-11-21T04:29:12;11.40;;;9.08;;
82417;SDS011;72059;53.734;10.260;2023-11-21T04:31:39;12.10;;;9.23;;
82417;SDS011;72059;53.734;10.260;2023-11-21T04:34:07;12.23;;;8.80;;
82417;SDS011;72059;53.734;10.260;2023-11-21T04:36:34;12.60;;;9.48;;
82417;SDS011;72059;53.734;10.260;2023-11-21T04:39:02;10.03;;;8.45;;
82417;SDS011;72059;53.734;10.260;2023-11-21T04:41:29;12.50;;;9.00;;
82417;SDS011;72059;53.734;10.260;2023-11-21T04:43:57;12.50;;;9.15;;
82417;SDS011;72059;53.734;10.260;2023-11-21T04:46:26;12.30;;;10.00;;
82417;SDS011;72059;53.734;10.260;2023-11-21T04:48:53;12.23;;;9.23;;
82417;SDS011;72059;53.734;10.260;2023-11-21T04:51:21;14.35;;;10.65;;
82417;SDS011;72059;53.734;10.260;2023-11-21T04:53:48;12.75;;;10.23;;
82417;SDS011;72059;53.734;10.260;2023-11-21T04:56:15;13.85;;;10.23;;
82417;SDS011;72059;53.734;10.260;2023-11-21T04:58:43;12.43;;;9.28;;
82417;SDS011;72059;53.734;10.260;2023-11-21T05:01:10;12.40;;;9.50;;
82417;SDS011;72059;53.734;10.260;2023-11-21T05:03:38;15.50;;;10.35;;
82417;SDS011;72059;53.734;10.260;2023-11-21T05:06:05;11.88;;;9.88;;
82417;SDS011;72059;53.734;10.260;2023-11-21T05:08:35;14.95;;;11.60;;
82417;SDS011;72059;53.734;10.260;2023-11-21T05:11:02;13.93;;;11.68;;
82417;SDS011;72059;53.734;10.260;2023-11-21T05:13:30;12.10;;;9.53;;
82417;SDS011;72059;53.734;10.260;2023-11-21T05:16:00;11.60;;;10.03;;
82417;SDS011;72059;53.734;10.260;2023-11-21T05:18:29;11.20;;;8.93;;
82417;SDS011;72059;53.734;10.260;2023-11-21T05:20:57;11.30;;;8.70;;
82417;SDS011;72059;53.734;10.260;2023-11-21T05:23:24;11.18;;;9.08;;
82417;SDS011;72059;53.734;10.260;2023-11-21T05:25:52;11.75;;;9.70;;
82417;SDS011;72059;53.734;10.260;2023-11-21T05:28:19;10.88;;;9.08;;
82417;SDS011;72059;53.734;10.260;2023-11-21T05:30:46;10.55;;;9.05;;
82417;SDS011;72059;53.734;10.260;2023-11-21T05:33:15;11.05;;;9.55;;
82417;SDS011;72059;53.734;10.260;2023-11-21T05:35:43;11.63;;;9.50;;
82417;SDS011;72059;53.734;10.260;2023-11-21T05:38:10;8.85;;;7.55;;
82417;SDS011;72059;53.734;10.260;2023-11-21T05:40:38;9.13;;;7.87;;
82417;SDS011;72059;53.734;10.260;2023-11-21T05:43:05;10.45;;;8.43;;
82417;SDS011;72059;53.734;10.260;2023-11-21T05:45:33;10.25;;;8.48;;
82417;SDS011;72059;53.734;10.260;2023-11-21T05:48:00;10.43;;;8.08;;
82417;SDS011;72059;53.734;10.260;2023-11-21T05:50:28;8.25;;;7.35;;
82417;SDS011;72059;53.734;10.260;2023-11-21T05:52:56;7.28;;;6.30;;
82417;SDS011;72059;53.734;10.260;2023-11-21T05:55:25;7.97;;;6.45;;
82417;SDS011;72059;53.734;10.260;2023-11-21T05:57:53;7.35;;;6.37;;
82417;SDS011;72059;53.734;10.260;2023-11-21T06:00:20;7.50;;;6.15;;
82417;SDS011;72059;53.734;10.260;2023-11-21T06:02:48;10.30;;;7.60;;
82417;SDS011;72059;53.734;10.260;2023-11-21T06:05:18;9.00;;;7.35;;
82417;SDS011;72059;53.734;10.260;2023-11-21T06:10:19;8.75;;;6.83;;
82417;SDS011;72059;53.734;10.260;2023-11-21T06:12:49;7.80;;;6.10;;
82417;SDS011;72059;53.734;10.260;2023-11-21T06:15:16;7.87;;;7.08;;
82417;SDS011;72059;53.734;10.260;2023-11-21T06:17:46;7.05;;;6.20;;
82417;SDS011;72059;53.734;10.260;2023-11-21T06:20:15;7.58;;;6.60;;
82417;SDS011;72059;53.734;10.260;2023-11-21T06:22:45;6.62;;;5.80;;
82417;SDS011;72059;53.734;10.260;2023-11-21T06:25:13;6.42;;;5.83;;
82417;SDS011;72059;53.734;10.260;2023-11-21T06:27:44;7.10;;;6.10;;
82417;SDS011;72059;53.734;10.260;2023-11-21T06:30:17;7.60;;;6.50;;
82417;SDS011;72059;53.734;10.260;2023-11-21T06:32:45;6.92;;;6.08;;
82417;SDS011;72059;53.734;10.260;2023-11-21T06:35:13;6.78;;;6.05;;
82417;SDS011;72059;53.734;10.260;2023-11-21T06:37:41;7.25;;;6.25;;
82417;SDS011;72059;53.734;10.260;2023-11-21T06:40:10;8.03;;;7.22;;
82417;SDS011;72059;53.734;10.260;2023-11-21T06:42:39;10.13;;;6.87;;
82417;SDS011;72059;53.734;10.260;2023-11-21T06:45:07;7.00;;;6.17;;
82417;SDS011;72059;53.734;10.260;2023-11-21T06:47:36;8.35;;;6.95;;
82417;SDS011;72059;53.734;10.260;2023-11-21T06:50:04;7.83;;;6.42;;
82417;SDS011;72059;53.734;10.260;2023-11-21T06:52:32;6.90;;;6.20;;
82417;SDS011;72059;53.734;10.260;2023-11-21T06:55:00;7.22;;;6.05;;
82417;SDS011;72059;53.734;10.260;2023-11-21T06:57:28;6.62;;;5.92;;
82417;SDS011;72059;53.734;10.260;2023-11-21T06:59:56;6.37;;;5.78;;
82417;SDS011;72059;53.734;10.260;2023-11-21T07:02:23;8.33;;;5.92;;
82417;SDS011;72059;53.734;10.260;2023-11-21T07:04:51;7.33;;;6.45;;
82417;SDS011;72059;53.734;10.260;2023-11-21T07:07:18;6.83;;;6.12;;
82417;SDS011;72059;53.734;10.260;2023-11-21T07:09:46;7.03;;;6.33;;
82417;SDS011;72059;53.734;10.260;2023-11-21T07:12:14;6.80;;;6.12;;
82417;SDS011;72059;53.734;10.260;2023-11-21T07:14:41;5.97;;;5.37;;
82417;SDS011;72059;53.734;10.260;2023-11-21T07:17:10;8.15;;;7.20;;
82417;SDS011;72059;53.734;10.260;2023-11-21T07:19:38;7.00;;;5.50;;
82417;SDS011;72059;53.734;10.260;2023-11-21T07:22:07;7.35;;;5.80;;
82417;SDS011;72059;53.734;10.260;2023-11-21T07:24:34;6.17;;;5.58;;
82417;SDS011;72059;53.734;10.260;2023-11-21T07:27:02;5.42;;;4.92;;
82417;SDS011;72059;53.734;10.260;2023-11-21T07:29:30;7.08;;;6.37;;
82417;SDS011;72059;53.734;10.260;2023-11-21T07:31:58;6.40;;;5.15;;
82417;SDS011;72059;53.734;10.260;2023-11-21T07:34:26;7.00;;;6.30;;
82417;SDS011;72059;53.734;10.260;2023-11-21T07:36:53;6.92;;;5.90;;
82417;SDS011;72059;53.734;10.260;2023-11-21T07:39:21;7.80;;;6.65;;
82417;SDS011;72059;53.734;10.260;2023-11-21T07:41:48;9.65;;;7.35;;
82417;SDS011;72059;53.734;10.260;2023-11-21T07:44:16;6.72;;;6.03;;
82417;SDS011;72059;53.734;10.260;2023-11-21T07:46:45;7.00;;;6.30;;
82417;SDS011;72059;53.734;10.260;2023-11-21T07:49:12;6.37;;;5.58;;
82417;SDS011;72059;53.734;10.260;2023-11-21T07:51:42;5.37;;;4.87;;
82417;SDS011;72059;53.734;10.260;2023-11-21T07:54:09;5.90;;;4.70;;
82417;SDS011;72059;53.734;10.260;2023-11-21T07:56:37;5.90;;;4.58;;
82417;SDS011;72059;53.734;10.260;2023-11-21T07:59:05;5.00;;;4.05;;
82417;SDS011;72059;53.734;10.260;2023-11-21T08:01:32;6.62;;;5.40;;
82417;SDS011;72059;53.734;10.260;2023-11-21T08:03:59;5.70;;;5.10;;
82417;SDS011;72059;53.734;10.260;2023-11-21T08:06:30;5.75;;;5.08;;
82417;SDS011;72059;53.734;10.260;2023-11-21T08:08:58;5.55;;;5.05;;
82417;SDS011;72059;53.734;10.260;2023-11-21T08:11:25;6.35;;;5.55;;
82417;SDS011;72059;53.734;10.260;2023-11-21T08:13:55;6.12;;;5.53;;
82417;SDS011;72059;53.734;10.260;2023-11-21T08:16:23;5.78;;;5.00;;
82417;SDS011;72059;53.734;10.260;2023-11-21T08:18:50;6.10;;;5.50;;
82417;SDS011;72059;53.734;10.260;2023-11-21T08:21:17;5.55;;;4.67;;
82417;SDS011;72059;53.734;10.260;2023-11-21T08:23:45;5.80;;;4.90;;
82417;SDS011;72059;53.734;10.260;2023-11-21T08:26:15;5.20;;;4.53;;
82417;SDS011;72059;53.734;10.260;2023-11-21T08:28:43;6.15;;;5.33;;
82417;SDS011;72059;53.734;10.260;2023-11-21T08:31:12;5.97;;;5.37;;
82417;SDS011;72059;53.734;10.260;2023-11-21T08:33:40;5.80;;;5.20;;
82417;SDS011;72059;53.734;10.260;2023-11-21T08:36:08;6.40;;;5.20;;
82417;SDS011;72059;53.734;10.260;2023-11-21T08:38:37;6.62;;;5.20;;
82417;SDS011;72059;53.734;10.260;2023-11-21T08:41:05;5.50;;;4.80;;
82417;SDS011;72059;53.734;10.260;2023-11-21T08:43:36;4.35;;;3.95;;
82417;SDS011;72059;53.734;10.260;2023-11-21T08:46:10;5.15;;;4.65;;
82417;SDS011;72059;53.734;10.260;2023-11-21T08:48:37;5.50;;;4.72;;
82417;SDS011;72059;53.734;10.260;2023-11-21T08:51:04;5.45;;;4.95;;
82417;SDS011;72059;53.734;10.260;2023-11-21T08:53:32;6.00;;;5.40;;
82417;SDS011;72059;53.734;10.260;2023-11-21T08:55:59;6.12;;;5.53;;
82417;SDS011;72059;53.734;10.260;2023-11-21T08:58:27;6.42;;;5.55;;
82417;SDS011;72059;53.734;10.260;2023-11-21T09:00:54;7.53;;;5.85;;
82417;SDS011;72059;53.734;10.260;2023-11-21T09:03:22;5.55;;;5.05;;
82417;SDS011;72059;53.734;10.260;2023-11-21T09:05:50;6.10;;;5.50;;
82417;SDS011;72059;53.734;10.260;2023-11-21T09:08:17;6.28;;;5.50;;
82417;SDS011;72059;53.734;10.260;2023-11-21T09:10:45;6.40;;;5.47;;
82417;SDS011;72059;53.734;10.260;2023-11-21T09:13:13;6.00;;;4.87;;
82417;SDS011;72059;53.734;10.260;2023-11-21T09:15:42;6.30;;;4.62;;
82417;SDS011;72059;53.734;10.260;2023-11-21T09:18:13;6.75;;;5.80;;
82417;SDS011;72059;53.734;10.260;2023-11-21T09:20:42;5.80;;;4.90;;
82417;SDS011;72059;53.734;10.260;2023-11-21T09:23:12;5.40;;;4.90;;
82417;SDS011;72059;53.734;10.260;2023-11-21T09:25:39;4.45;;;3.98;;
82417;SDS011;72059;53.734;10.260;2023-11-21T09:28:07;4.92;;;4.33;;
82417;SDS011;72059;53.734;10.260;2023-11-21T09:30:35;5.50;;;4.70;;
82417;SDS011;72059;53.734;10.260;2023-11-21T09:33:03;4.72;;;4.22;;
82417;SDS011;72059;53.734;10.260;2023-11-21T09:35:35;5.53;;;4.42;;
82417;SDS011;72059;53.734;10.260;2023-11-21T09:38:03;4.65;;;4.10;;
82417;SDS011;72059;53.734;10.260;2023-11-21T09:40:37;4.20;;;3.80;;
82417;SDS011;72059;53.734;10.260;2023-11-21T09:43:15;6.12;;;4.90;;
82417;SDS011;72059;53.734;10.260;2023-11-21T09:45:46;5.05;;;4.20;;
82417;SDS011;72059;53.734;10.260;2023-11-21T09:48:16;4.53;;;4.12;;
82417;SDS011;72059;53.734;10.260;2023-11-21T09:50:44;4.17;;;3.77;;
82417;SDS011;72059;53.734;10.260;2023-11-21T09:53:17;6.42;;;3.95;;
82417;SDS011;72059;53.734;10.260;2023-11-21T09:55:50;4.75;;;4.30;;
82417;SDS011;72059;53.734;10.260;2023-11-21T09:58:18;4.85;;;4.35;;
82417;SDS011;72059;53.734;10.260;2023-11-21T10:00:49;5.00;;;4.17;;
82417;SDS011;72059;53.734;10.260;2023-11-21T10:03:18;4.70;;;4.17;;
82417;SDS011;72059;53.734;10.260;2023-11-21T10:05:45;5.03;;;4.62;;
82417;SDS011;72059;53.734;10.260;2023-11-21T10:08:16;5.03;;;4.40;;
82417;SDS011;72059;53.734;10.260;2023-11-21T10:10:44;4.62;;;4.22;;
82417;SDS011;72059;53.734;10.260;2023-11-21T10:13:13;4.80;;;4.30;;
82417;SDS011;72059;53.734;10.260;2023-11-21T10:15:44;6.30;;;4.37;;
82417;SDS011;72059;53.734;10.260;2023-11-21T10:18:17;5.20;;;4.37;;
82417;SDS011;72059;53.734;10.260;2023-11-21T10:20:44;3.98;;;3.67;;
82417;SDS011;72059;53.734;10.260;2023-11-21T10:23:16;4.83;;;3.45;;
82417;SDS011;72059;53.734;10.260;2023-11-21T10:25:50;5.60;;;3.58;;
82417;SDS011;72059;53.734;10.260;2023-11-21T10:28:20;3.70;;;3.40;;
82417;SDS011;72059;53.734;10.260;2023-11-21T10:30:47;3.58;;;3.27;;
82417;SDS011;72059;53.734;10.260;2023-11-21T10:33:15;4.03;;;3.72;;
82417;SDS011;72059;53.734;10.260;2023-11-21T10:35:43;4.75;;;3.72;;
82417;SDS011;72059;53.734;10.260;2023-11-21T10:38:15;4.58;;;3.62;;
82417;SDS011;72059;53.734;10.260;2023-11-21T10:40:49;4.42;;;3.45;;
82417;SDS011;72059;53.734;10.260;2023-11-21T10:43:18;4.80;;;3.92;;
82417;SDS011;72059;53.734;10.260;2023-11-21T10:45:45;3.90;;;3.60;;
82417;SDS011;72059;53.734;10.260;2023-11-21T10:48:13;6.45;;;4.53;;
82417;SDS011;72059;53.734;10.260;2023-11-21T10:50:41;6.03;;;4.42;;
82417;SDS011;72059;53.734;10.260;2023-11-21T10:53:10;5.95;;;4.50;;
82417;SDS011;72059;53.734;10.260;2023-11-21T10:55:38;5.83;;;4.37;;
82417;SDS011;72059;53.734;10.260;2023-11-21T10:58:06;4.78;;;4.28;;
82417;SDS011;72059;53.734;10.260;2023-11-21T11:00:35;4.75;;;4.35;;
82417;SDS011;72059;53.734;10.260;2023-11-21T11:03:05;4.45;;;4.05;;
82417;SDS011;72059;53.734;10.260;2023-11-21T11:05:34;6.10;;;4.28;;
82417;SDS011;72059;53.734;10.260;2023-11-21T11:08:05;4.20;;;3.33;;
82417;SDS011;72059;53.734;10.260;2023-11-21T11:10:34;5.15;;;4.30;;
82417;SDS011;72059;53.734;10.260;2023-11-21T11:13:02;4.78;;;4.20;;
82417;SDS011;72059;53.734;10.260;2023-11-21T11:15:30;4.20;;;3.80;;
82417;SDS011;72059;53.734;10.260;2023-11-21T11:17:58;3.87;;;3.58;;
82417;SDS011;72059;53.734;10.260;2023-11-21T11:20:31;4.12;;;3.72;;
82417;SDS011;72059;53.734;10.260;2023-11-21T11:29:35;4.22;;;3.70;;
82417;SDS011;72059;53.734;10.260;2023-11-21T11:31:26;4.85;;;4.15;;
82417;SDS011;72059;53.734;10.260;2023-11-21T11:34:14;8.25;;;4.92;;
82417;SDS011;72059;53.734;10.260;2023-11-21T11:37:08;4.83;;;3.80;;
82417;SDS011;72059;53.734;10.260;2023-11-21T11:39:37;4.65;;;4.22;;
82417;SDS011;72059;53.734;10.260;2023-11-21T11:42:16;4.77;;;4.27;;
82417;SDS011;72059;53.734;10.260;2023-11-21T11:47:15;4.12;;;3.72;;
82417;SDS011;72059;53.734;10.260;2023-11-21T11:49:56;3.42;;;3.12;;
82417;SDS011;72059;53.734;10.260;2023-11-21T11:52:35;4.40;;;4.00;;
82417;SDS011;72059;53.734;10.260;2023-11-21T11:55:14;4.47;;;4.00;;
82417;SDS011;72059;53.734;10.260;2023-11-21T11:57:53;5.20;;;4.15;;
82417;SDS011;72059;53.734;10.260;2023-11-21T12:02:59;6.10;;;4.40;;
82417;SDS011;72059;53.734;10.260;2023-11-21T12:05:29;4.95;;;4.33;;
82417;SDS011;72059;53.734;10.260;2023-11-21T12:08:01;4.80;;;4.30;;
82417;SDS011;72059;53.734;10.260;2023-11-21T12:10:31;5.97;;;5.37;;
82417;SDS011;72059;53.734;10.260;2023-11-21T12:13:00;6.50;;;5.10;;
82417;SDS011;72059;53.734;10.260;2023-11-21T12:15:31;5.47;;;4.85;;
82417;SDS011;72059;53.734;10.260;2023-11-21T12:17:59;5.50;;;4.97;;
82417;SDS011;72059;53.734;10.260;2023-11-21T12:20:27;6.12;;;4.80;;
82417;SDS011;72059;53.734;10.260;2023-11-21T12:22:55;5.20;;;4.22;;
82417;SDS011;72059;53.734;10.260;2023-11-21T12:25:31;4.92;;;4.42;;
82417;SDS011;72059;53.734;10.260;2023-11-21T12:27:57;4.17;;;3.77;;
82417;SDS011;72059;53.734;10.260;2023-11-21T12:30:26;4.55;;;3.90;;
82417;SDS011;72059;53.734;10.260;2023-11-21T12:32:56;4.58;;;4.17;;
82417;SDS011;72059;53.734;10.260;2023-11-21T12:35:32;7.25;;;4.40;;
82417;SDS011;72059;53.734;10.260;2023-11-21T12:37:56;5.30;;;4.80;;
82417;SDS011;72059;53.734;10.260;2023-11-21T12:40:24;5.65;;;5.10;;
82417;SDS011;72059;53.734;10.260;2023-11-21T12:42:53;5.87;;;4.87;;
82417;SDS011;72059;53.734;10.260;2023-11-21T12:45:27;4.97;;;4.47;;
82417;SDS011;72059;53.734;10.260;2023-11-21T12:47:56;5.15;;;4.65;;
82417;SDS011;72059;53.734;10.260;2023-11-21T12:50:30;5.42;;;4.70;;
82417;SDS011;72059;53.734;10.260;2023-11-21T12:52:59;7.72;;;5.05;;
82417;SDS011;72059;53.734;10.260;2023-11-21T12:55:32;4.62;;;4.12;;
82417;SDS011;72059;53.734;10.260;2023-11-21T12:58:02;4.65;;;4.03;;
82417;SDS011;72059;53.734;10.260;2023-11-21T13:00:35;5.65;;;4.37;;
82417;SDS011;72059;53.734;10.260;2023-11-21T13:03:06;5.35;;;4.78;;
82417;SDS011;72059;53.734;10.260;2023-11-21T13:05:38;4.80;;;4.40;;
82417;SDS011;72059;53.734;10.260;2023-11-21T13:08:10;5.58;;;5.03;;
82417;SDS011;72059;53.734;10.260;2023-11-21T13:10:40;6.25;;;5.40;;
82417;SDS011;72059;53.734;10.260;2023-11-21T13:13:10;5.30;;;4.80;;
82417;SDS011;72059;53.734;10.260;2023-11-21T13:15:47;6.15;;;5.10;;
82417;SDS011;72059;53.734;10.260;2023-11-21T13:18:15;4.83;;;4.42;;
82417;SDS011;72059;53.734;10.260;2023-11-21T13:20:43;5.87;;;4.97;;
82417;SDS011;72059;53.734;10.260;2023-11-21T13:23:12;5.55;;;4.28;;
82417;SDS011;72059;53.734;10.260;2023-11-21T13:25:46;6.67;;;4.58;;
82417;SDS011;72059;53.734;10.260;2023-11-21T13:28:12;5.17;;;4.67;;
82417;SDS011;72059;53.734;10.260;2023-11-21T13:30:41;5.72;;;5.12;;
82417;SDS011;72059;53.734;10.260;2023-11-21T13:33:10;4.55;;;4.12;;
82417;SDS011;72059;53.734;10.260;2023-11-21T13:35:39;5.80;;;4.33;;
82417;SDS011;72059;53.734;10.260;2023-11-21T13:38:11;4.53;;;4.12;;
82417;SDS011;72059;53.734;10.260;2023-11-21T13:40:41;4.87;;;4.40;;
82417;SDS011;72059;53.734;10.260;2023-11-21T13:43:19;5.22;;;4.72;;
82417;SDS011;72059;53.734;10.260;2023-11-21T13:45:48;5.20;;;4.22;;
82417;SDS011;72059;53.734;10.260;2023-11-21T13:48:23;4.35;;;3.80;;
82417;SDS011;72059;53.734;10.260;2023-11-21T13:51:10;4.05;;;3.72;;
82417;SDS011;72059;53.734;10.260;2023-11-21T13:53:48;3.77;;;3.15;;
82417;SDS011;72059;53.734;10.260;2023-11-21T13:56:17;4.17;;;2.60;;
82417;SDS011;72059;53.734;10.260;2023-11-21T13:58:47;2.15;;;1.95;;
82417;SDS011;72059;53.734;10.260;2023-11-21T14:01:17;2.33;;;2.10;;
82417;SDS011;72059;53.734;10.260;2023-11-21T14:04:00;2.62;;;2.42;;
82417;SDS011;72059;53.734;10.260;2023-11-21T14:06:36;2.87;;;2.20;;
82417;SDS011;72059;53.734;10.260;2023-11-21T14:09:05;3.00;;;2.33;;
82417;SDS011;72059;53.734;10.260;2023-11-21T14:11:33;3.65;;;3.00;;
82417;SDS011;72059;53.734;10.260;2023-11-21T14:14:02;2.15;;;2.00;;
82417;SDS011;72059;53.734;10.260;2023-11-21T14:16:31;4.47;;;2.37;;
82417;SDS011;72059;53.734;10.260;2023-11-21T14:18:58;4.17;;;2.75;;
82417;SDS011;72059;53.734;10.260;2023-11-21T14:21:27;3.08;;;2.55;;
82417;SDS011;72059;53.734;10.260;2023-11-21T14:23:55;2.87;;;2.58;;
82417;SDS011;72059;53.734;10.260;2023-11-21T14:26:22;3.02;;;2.47;;
82417;SDS011;72059;53.734;10.260;2023-11-21T14:28:50;2.92;;;2.62;;
82417;SDS011;72059;53.734;10.260;2023-11-21T14:31:18;3.08;;;2.85;;
82417;SDS011;72059;53.734;10.260;2023-11-21T14:33:46;4.72;;;2.52;;
82417;SDS011;72059;53.734;10.260;2023-11-21T14:36:13;3.58;;;2.60;;
82417;SDS011;72059;53.734;10.260;2023-11-21T14:38:42;3.62;;;3.00;;
82417;SDS011;72059;53.734;10.260;2023-11-21T14:41:10;2.58;;;2.33;;
82417;SDS011;72059;53.734;10.260;2023-11-21T14:43:39;3.75;;;3.10;;
82417;SDS011;72059;53.734;10.260;2023-11-21T14:46:07;3.42;;;2.65;;
82417;SDS011;72059;53.734;10.260;2023-11-21T14:48:36;3.58;;;2.98;;
82417;SDS011;72059;53.734;10.260;2023-11-21T14:51:10;5.08;;;3.15;;